sensor_id;sensor_type;location;lat;lon;timestamp;temperature;humidity
4425;DHT22;2225;53.568;13.266;2022-07-18T00:00:37;21.30;73.70
4425;DHT22;2225;53.568;13.266;2022-07-18T00:03:05;21.20;73.80
4425;DHT22;2225;53.568;13.266;2022-07-18T00:05:32;21.20;73.90
4425;DHT22;2225;53.568;13.266;2022-07-18T00:07:59;21.20;74.00
4425;DHT22;2225;53.568;13.266;2022-07-18T00:10:26;21.20;74.10
4425;DHT22;2225;53.568;13.266;2022-07-18T00:12:53;21.20;74.10
4425;DHT22;2225;53.568;13.266;2022-07-18T00:15:20;21.20;74.20
4425;DHT22;2225;53.568;13.266;2022-07-18T00:17:47;21.20;74.30
4425;DHT22;2225;53.568;13.266;2022-07-18T00:20:14;21.20;74.40
4425;DHT22;2225;53.568;13.266;2022-07-18T00:22:41;21.20;74.40
4425;DHT22;2225;53.568;13.266;2022-07-18T00:25:08;21.20;74.40
4425;DHT22;2225;53.568;13.266;2022-07-18T00:27:35;21.20;74.50
4425;DHT22;2225;53.568;13.266;2022-07-18T00:30:03;21.20;74.80
4425;DHT22;2225;53.568;13.266;2022-07-18T00:32:30;21.20;74.90
4425;DHT22;2225;53.568;13.266;2022-07-18T00:34:58;21.20;74.80
4425;DHT22;2225;53.568;13.266;2022-07-18T00:37:25;21.20;74.90
4425;DHT22;2225;53.568;13.266;2022-07-18T00:39:52;21.10;74.80
4425;DHT22;2225;53.568;13.266;2022-07-18T00:42:20;21.10;74.90
4425;DHT22;2225;53.568;13.266;2022-07-18T00:44:52;21.10;75.00
4425;DHT22;2225;53.568;13.266;2022-07-18T00:47:23;21.10;75.10
4425;DHT22;2225;53.568;13.266;2022-07-18T00:49:50;21.10;74.80
4425;DHT22;2225;53.568;13.266;2022-07-18T00:52:17;21.10;74.90
4425;DHT22;2225;53.568;13.266;2022-07-18T00:54:44;21.10;75.00
4425;DHT22;2225;53.568;13.266;2022-07-18T00:57:11;21.00;75.20
4425;DHT22;2225;53.568;13.266;2022-07-18T00:59:39;21.00;75.30
4425;DHT22;2225;53.568;13.266;2022-07-18T01:02:26;21.00;75.40
4425;DHT22;2225;53.568;13.266;2022-07-18T01:04:53;21.00;75.30
4425;DHT22;2225;53.568;13.266;2022-07-18T01:07:20;20.90;75.50
4425;DHT22;2225;53.568;13.266;2022-07-18T01:09:47;20.90;75.70
4425;DHT22;2225;53.568;13.266;2022-07-18T01:12:15;20.80;76.00
4425;DHT22;2225;53.568;13.266;2022-07-18T01:14:42;20.80;76.40
4425;DHT22;2225;53.568;13.266;2022-07-18T01:17:14;20.80;76.70
4425;DHT22;2225;53.568;13.266;2022-07-18T01:19:42;20.80;77.40
4425;DHT22;2225;53.568;13.266;2022-07-18T01:22:11;20.70;77.30
4425;DHT22;2225;53.568;13.266;2022-07-18T01:24:39;20.70;77.60
4425;DHT22;2225;53.568;13.266;2022-07-18T01:27:08;20.70;78.20
4425;DHT22;2225;53.568;13.266;2022-07-18T01:29:36;20.70;78.50
4425;DHT22;2225;53.568;13.266;2022-07-18T01:32:05;20.70;78.70
4425;DHT22;2225;53.568;13.266;2022-07-18T01:34:33;20.60;79.10
4425;DHT22;2225;53.568;13.266;2022-07-18T01:37:01;20.60;79.30
4425;DHT22;2225;53.568;13.266;2022-07-18T01:39:28;20.60;79.50
4425;DHT22;2225;53.568;13.266;2022-07-18T01:42:00;20.60;79.70
4425;DHT22;2225;53.568;13.266;2022-07-18T01:44:29;20.60;80.60
4425;DHT22;2225;53.568;13.266;2022-07-18T01:46:57;20.60;80.40
4425;DHT22;2225;53.568;13.266;2022-07-18T01:49:25;20.60;80.60
4425;DHT22;2225;53.568;13.266;2022-07-18T01:51:53;20.60;80.50
4425;DHT22;2225;53.568;13.266;2022-07-18T01:54:21;20.60;80.70
4425;DHT22;2225;53.568;13.266;2022-07-18T01:56:53;20.60;80.90
4425;DHT22;2225;53.568;13.266;2022-07-18T01:59:20;20.60;81.10
4425;DHT22;2225;53.568;13.266;2022-07-18T02:01:47;20.60;81.50
4425;DHT22;2225;53.568;13.266;2022-07-18T02:04:14;20.60;82.20
4425;DHT22;2225;53.568;13.266;2022-07-18T02:06:41;20.70;82.30
4425;DHT22;2225;53.568;13.266;2022-07-18T02:09:08;20.70;82.30
4425;DHT22;2225;53.568;13.266;2022-07-18T02:11:36;20.70;82.40
4425;DHT22;2225;53.568;13.266;2022-07-18T02:14:04;20.70;82.60
4425;DHT22;2225;53.568;13.266;2022-07-18T02:16:32;20.70;83.10
4425;DHT22;2225;53.568;13.266;2022-07-18T02:19:00;20.70;83.40
4425;DHT22;2225;53.568;13.266;2022-07-18T02:21:27;20.70;83.30
4425;DHT22;2225;53.568;13.266;2022-07-18T02:23:54;20.70;83.40
4425;DHT22;2225;53.568;13.266;2022-07-18T02:26:21;20.70;83.60
4425;DHT22;2225;53.568;13.266;2022-07-18T02:28:48;20.70;83.70
4425;DHT22;2225;53.568;13.266;2022-07-18T02:31:15;20.70;84.10
4425;DHT22;2225;53.568;13.266;2022-07-18T02:33:43;20.70;84.30
4425;DHT22;2225;53.568;13.266;2022-07-18T02:36:09;20.70;84.30
4425;DHT22;2225;53.568;13.266;2022-07-18T02:38:37;20.70;84.50
4425;DHT22;2225;53.568;13.266;2022-07-18T02:41:04;20.70;84.60
4425;DHT22;2225;53.568;13.266;2022-07-18T02:43:31;20.70;85.20
4425;DHT22;2225;53.568;13.266;2022-07-18T02:45:58;20.70;85.30
4425;DHT22;2225;53.568;13.266;2022-07-18T02:48:25;20.70;85.40
4425;DHT22;2225;53.568;13.266;2022-07-18T02:50:52;20.70;85.80
4425;DHT22;2225;53.568;13.266;2022-07-18T02:53:19;20.70;85.70
4425;DHT22;2225;53.568;13.266;2022-07-18T02:55:49;20.70;86.00
4425;DHT22;2225;53.568;13.266;2022-07-18T02:58:17;20.60;85.90
4425;DHT22;2225;53.568;13.266;2022-07-18T03:00:44;20.60;86.00
4425;DHT22;2225;53.568;13.266;2022-07-18T03:03:11;20.60;86.60
4425;DHT22;2225;53.568;13.266;2022-07-18T03:05:38;20.60;86.40
4425;DHT22;2225;53.568;13.266;2022-07-18T03:08:05;20.60;86.20
4425;DHT22;2225;53.568;13.266;2022-07-18T03:10:32;20.60;86.30
4425;DHT22;2225;53.568;13.266;2022-07-18T03:12:59;20.60;86.40
4425;DHT22;2225;53.568;13.266;2022-07-18T03:15:26;20.60;86.50
4425;DHT22;2225;53.568;13.266;2022-07-18T03:17:53;20.60;86.50
4425;DHT22;2225;53.568;13.266;2022-07-18T03:20:20;20.60;86.40
4425;DHT22;2225;53.568;13.266;2022-07-18T03:22:47;20.60;86.40
4425;DHT22;2225;53.568;13.266;2022-07-18T03:25:14;20.70;86.30
4425;DHT22;2225;53.568;13.266;2022-07-18T03:27:42;20.60;86.40
4425;DHT22;2225;53.568;13.266;2022-07-18T03:30:11;20.70;86.50
4425;DHT22;2225;53.568;13.266;2022-07-18T03:32:38;20.70;86.50
4425;DHT22;2225;53.568;13.266;2022-07-18T03:35:05;20.60;86.20
4425;DHT22;2225;53.568;13.266;2022-07-18T03:37:33;20.70;86.20
4425;DHT22;2225;53.568;13.266;2022-07-18T03:40:00;20.70;86.30
4425;DHT22;2225;53.568;13.266;2022-07-18T03:42:27;20.70;86.30
4425;DHT22;2225;53.568;13.266;2022-07-18T03:44:54;20.70;86.40
4425;DHT22;2225;53.568;13.266;2022-07-18T03:47:21;20.70;86.10
4425;DHT22;2225;53.568;13.266;2022-07-18T03:49:48;20.70;86.10
4425;DHT22;2225;53.568;13.266;2022-07-18T03:52:15;20.80;86.10
4425;DHT22;2225;53.568;13.266;2022-07-18T03:54:42;20.80;86.00
4425;DHT22;2225;53.568;13.266;2022-07-18T03:57:08;20.70;85.70
4425;DHT22;2225;53.568;13.266;2022-07-18T03:59:35;20.80;85.60
4425;DHT22;2225;53.568;13.266;2022-07-18T04:02:02;20.80;85.60
4425;DHT22;2225;53.568;13.266;2022-07-18T04:04:29;20.80;85.50
4425;DHT22;2225;53.568;13.266;2022-07-18T04:06:56;20.80;85.20
4425;DHT22;2225;53.568;13.266;2022-07-18T04:09:26;20.70;85.10
4425;DHT22;2225;53.568;13.266;2022-07-18T04:11:53;20.80;85.10
4425;DHT22;2225;53.568;13.266;2022-07-18T04:14:20;20.80;84.90
4425;DHT22;2225;53.568;13.266;2022-07-18T04:16:49;20.70;84.80
4425;DHT22;2225;53.568;13.266;2022-07-18T04:19:16;20.70;84.70
4425;DHT22;2225;53.568;13.266;2022-07-18T04:21:43;20.70;84.90
4425;DHT22;2225;53.568;13.266;2022-07-18T04:24:11;20.70;85.40
4425;DHT22;2225;53.568;13.266;2022-07-18T04:26:38;20.80;85.90
4425;DHT22;2225;53.568;13.266;2022-07-18T04:29:05;20.90;85.90
4425;DHT22;2225;53.568;13.266;2022-07-18T04:31:32;21.00;86.50
4425;DHT22;2225;53.568;13.266;2022-07-18T04:33:59;21.20;86.00
4425;DHT22;2225;53.568;13.266;2022-07-18T04:36:26;21.30;85.30
4425;DHT22;2225;53.568;13.266;2022-07-18T04:38:53;21.40;84.40
4425;DHT22;2225;53.568;13.266;2022-07-18T04:41:20;21.60;84.00
4425;DHT22;2225;53.568;13.266;2022-07-18T04:43:50;21.70;83.50
4425;DHT22;2225;53.568;13.266;2022-07-18T04:46:18;21.80;82.90
4425;DHT22;2225;53.568;13.266;2022-07-18T04:48:45;21.80;82.50
4425;DHT22;2225;53.568;13.266;2022-07-18T04:51:12;21.80;82.40
4425;DHT22;2225;53.568;13.266;2022-07-18T04:53:39;21.90;82.10
4425;DHT22;2225;53.568;13.266;2022-07-18T04:56:06;21.80;82.40
4425;DHT22;2225;53.568;13.266;2022-07-18T04:58:33;21.80;82.80
4425;DHT22;2225;53.568;13.266;2022-07-18T05:01:00;21.90;83.20
4425;DHT22;2225;53.568;13.266;2022-07-18T05:03:27;21.90;83.50
4425;DHT22;2225;53.568;13.266;2022-07-18T05:05:54;21.90;83.60
4425;DHT22;2225;53.568;13.266;2022-07-18T05:08:21;21.90;83.50
4425;DHT22;2225;53.568;13.266;2022-07-18T05:10:48;21.90;83.70
4425;DHT22;2225;53.568;13.266;2022-07-18T05:13:15;21.90;83.80
4425;DHT22;2225;53.568;13.266;2022-07-18T05:15:42;22.00;83.90
4425;DHT22;2225;53.568;13.266;2022-07-18T05:18:10;22.00;83.40
4425;DHT22;2225;53.568;13.266;2022-07-18T05:20:37;22.00;82.90
4425;DHT22;2225;53.568;13.266;2022-07-18T05:23:09;22.10;83.50
4425;DHT22;2225;53.568;13.266;2022-07-18T05:25:36;22.10;82.30
4425;DHT22;2225;53.568;13.266;2022-07-18T05:28:03;22.20;81.90
4425;DHT22;2225;53.568;13.266;2022-07-18T05:30:30;22.20;81.60
4425;DHT22;2225;53.568;13.266;2022-07-18T05:32:57;22.20;81.40
4425;DHT22;2225;53.568;13.266;2022-07-18T05:35:24;22.30;81.10
4425;DHT22;2225;53.568;13.266;2022-07-18T05:37:51;22.40;80.80
4425;DHT22;2225;53.568;13.266;2022-07-18T05:40:18;22.40;80.40
4425;DHT22;2225;53.568;13.266;2022-07-18T05:42:45;22.50;80.00
4425;DHT22;2225;53.568;13.266;2022-07-18T05:45:22;22.60;80.10
4425;DHT22;2225;53.568;13.266;2022-07-18T05:47:50;22.60;80.20
4425;DHT22;2225;53.568;13.266;2022-07-18T05:50:18;22.70;80.00
4425;DHT22;2225;53.568;13.266;2022-07-18T05:52:45;22.80;80.00
4425;DHT22;2225;53.568;13.266;2022-07-18T05:55:12;22.80;79.60
4425;DHT22;2225;53.568;13.266;2022-07-18T05:57:39;22.90;79.60
4425;DHT22;2225;53.568;13.266;2022-07-18T06:00:08;23.00;78.90
4425;DHT22;2225;53.568;13.266;2022-07-18T06:02:37;23.10;78.20
4425;DHT22;2225;53.568;13.266;2022-07-18T06:05:06;23.20;77.10
4425;DHT22;2225;53.568;13.266;2022-07-18T06:07:53;23.20;76.70
4425;DHT22;2225;53.568;13.266;2022-07-18T06:10:22;23.30;75.80
4425;DHT22;2225;53.568;13.266;2022-07-18T06:12:50;23.30;75.40
4425;DHT22;2225;53.568;13.266;2022-07-18T06:15:17;23.40;75.10
4425;DHT22;2225;53.568;13.266;2022-07-18T06:17:44;23.50;74.50
4425;DHT22;2225;53.568;13.266;2022-07-18T06:20:11;23.60;73.70
4425;DHT22;2225;53.568;13.266;2022-07-18T06:22:38;23.70;74.40
4425;DHT22;2225;53.568;13.266;2022-07-18T06:25:06;23.70;73.80
4425;DHT22;2225;53.568;13.266;2022-07-18T06:27:33;23.80;73.10
4425;DHT22;2225;53.568;13.266;2022-07-18T06:30:03;23.90;72.30
4425;DHT22;2225;53.568;13.266;2022-07-18T06:32:30;23.90;72.40
4425;DHT22;2225;53.568;13.266;2022-07-18T06:34:58;24.00;72.00
4425;DHT22;2225;53.568;13.266;2022-07-18T06:37:25;24.10;72.00
4425;DHT22;2225;53.568;13.266;2022-07-18T06:39:51;24.10;72.40
4425;DHT22;2225;53.568;13.266;2022-07-18T06:42:19;24.20;72.80
4425;DHT22;2225;53.568;13.266;2022-07-18T06:44:46;24.30;71.50
4425;DHT22;2225;53.568;13.266;2022-07-18T06:47:13;24.40;71.70
4425;DHT22;2225;53.568;13.266;2022-07-18T06:49:40;24.40;71.10
4425;DHT22;2225;53.568;13.266;2022-07-18T06:52:07;24.50;70.60
4425;DHT22;2225;53.568;13.266;2022-07-18T06:54:38;24.50;69.90
4425;DHT22;2225;53.568;13.266;2022-07-18T06:57:07;24.60;69.80
4425;DHT22;2225;53.568;13.266;2022-07-18T06:59:35;24.70;70.10
4425;DHT22;2225;53.568;13.266;2022-07-18T07:02:03;24.80;70.20
4425;DHT22;2225;53.568;13.266;2022-07-18T07:04:30;24.80;69.50
4425;DHT22;2225;53.568;13.266;2022-07-18T07:06:57;25.00;69.30
4425;DHT22;2225;53.568;13.266;2022-07-18T07:09:24;25.00;67.80
4425;DHT22;2225;53.568;13.266;2022-07-18T07:11:51;25.10;67.50
4425;DHT22;2225;53.568;13.266;2022-07-18T07:14:18;25.20;67.20
4425;DHT22;2225;53.568;13.266;2022-07-18T07:16:45;25.30;67.90
4425;DHT22;2225;53.568;13.266;2022-07-18T07:19:12;25.50;67.90
4425;DHT22;2225;53.568;13.266;2022-07-18T07:21:39;25.60;66.40
4425;DHT22;2225;53.568;13.266;2022-07-18T07:24:06;25.70;65.30
4425;DHT22;2225;53.568;13.266;2022-07-18T07:26:34;25.90;65.70
4425;DHT22;2225;53.568;13.266;2022-07-18T07:29:01;25.90;65.00
4425;DHT22;2225;53.568;13.266;2022-07-18T07:31:28;26.00;64.50
4425;DHT22;2225;53.568;13.266;2022-07-18T07:33:56;26.00;64.30
4425;DHT22;2225;53.568;13.266;2022-07-18T07:36:31;26.00;64.60
4425;DHT22;2225;53.568;13.266;2022-07-18T07:38:58;26.00;64.60
4425;DHT22;2225;53.568;13.266;2022-07-18T07:41:25;26.00;64.00
4425;DHT22;2225;53.568;13.266;2022-07-18T07:43:52;26.00;63.80
4425;DHT22;2225;53.568;13.266;2022-07-18T07:46:19;26.00;63.40
4425;DHT22;2225;53.568;13.266;2022-07-18T07:48:46;26.00;64.10
4425;DHT22;2225;53.568;13.266;2022-07-18T07:51:14;26.10;64.30
4425;DHT22;2225;53.568;13.266;2022-07-18T07:53:47;26.20;64.20
4425;DHT22;2225;53.568;13.266;2022-07-18T07:56:14;26.30;63.00
4425;DHT22;2225;53.568;13.266;2022-07-18T07:58:45;26.40;62.50
4425;DHT22;2225;53.568;13.266;2022-07-18T08:01:13;26.50;61.80
4425;DHT22;2225;53.568;13.266;2022-07-18T08:03:41;26.70;61.20
4425;DHT22;2225;53.568;13.266;2022-07-18T08:06:08;26.80;60.80
4425;DHT22;2225;53.568;13.266;2022-07-18T08:08:35;27.00;60.70
4425;DHT22;2225;53.568;13.266;2022-07-18T08:11:02;27.10;60.00
4425;DHT22;2225;53.568;13.266;2022-07-18T08:13:29;27.20;59.90
4425;DHT22;2225;53.568;13.266;2022-07-18T08:15:56;27.40;59.70
4425;DHT22;2225;53.568;13.266;2022-07-18T08:18:23;27.50;60.00
4425;DHT22;2225;53.568;13.266;2022-07-18T08:20:50;27.60;58.70
4425;DHT22;2225;53.568;13.266;2022-07-18T08:23:17;27.60;57.80
4425;DHT22;2225;53.568;13.266;2022-07-18T08:25:45;27.70;58.00
4425;DHT22;2225;53.568;13.266;2022-07-18T08:28:13;27.80;57.20
4425;DHT22;2225;53.568;13.266;2022-07-18T08:30:40;27.80;57.50
4425;DHT22;2225;53.568;13.266;2022-07-18T08:33:07;27.90;57.50
4425;DHT22;2225;53.568;13.266;2022-07-18T08:35:35;28.00;57.30
4425;DHT22;2225;53.568;13.266;2022-07-18T08:38:03;28.10;57.30
4425;DHT22;2225;53.568;13.266;2022-07-18T08:40:30;28.10;57.30
4425;DHT22;2225;53.568;13.266;2022-07-18T08:42:57;28.20;56.50
4425;DHT22;2225;53.568;13.266;2022-07-18T08:45:46;28.30;56.40
4425;DHT22;2225;53.568;13.266;2022-07-18T08:48:15;28.40;56.10
4425;DHT22;2225;53.568;13.266;2022-07-18T08:50:47;28.40;54.60
4425;DHT22;2225;53.568;13.266;2022-07-18T08:53:16;28.50;54.90
4425;DHT22;2225;53.568;13.266;2022-07-18T08:55:44;28.60;55.00
4425;DHT22;2225;53.568;13.266;2022-07-18T08:58:12;28.70;54.60
4425;DHT22;2225;53.568;13.266;2022-07-18T09:01:01;28.70;54.10
4425;DHT22;2225;53.568;13.266;2022-07-18T09:03:27;28.80;54.30
4425;DHT22;2225;53.568;13.266;2022-07-18T09:06:12;28.90;54.40
4425;DHT22;2225;53.568;13.266;2022-07-18T09:08:59;28.90;53.50
4425;DHT22;2225;53.568;13.266;2022-07-18T09:11:27;28.90;52.70
4425;DHT22;2225;53.568;13.266;2022-07-18T09:17:00;28.90;51.70
4425;DHT22;2225;53.568;13.266;2022-07-18T09:19:39;28.80;51.80
4425;DHT22;2225;53.568;13.266;2022-07-18T09:22:29;28.70;52.50
4425;DHT22;2225;53.568;13.266;2022-07-18T09:24:58;28.60;52.30
4425;DHT22;2225;53.568;13.266;2022-07-18T09:27:35;28.60;52.90
4425;DHT22;2225;53.568;13.266;2022-07-18T09:32:40;28.50;53.50
4425;DHT22;2225;53.568;13.266;2022-07-18T09:35:16;28.50;53.90
4425;DHT22;2225;53.568;13.266;2022-07-18T09:38:05;28.40;53.70
4425;DHT22;2225;53.568;13.266;2022-07-18T09:40:41;28.40;53.50
4425;DHT22;2225;53.568;13.266;2022-07-18T09:43:12;28.40;53.60
4425;DHT22;2225;53.568;13.266;2022-07-18T09:45:49;28.30;53.60
4425;DHT22;2225;53.568;13.266;2022-07-18T09:48:19;28.30;53.70
4425;DHT22;2225;53.568;13.266;2022-07-18T09:50:52;28.30;54.10
4425;DHT22;2225;53.568;13.266;2022-07-18T09:53:39;28.30;54.30
4425;DHT22;2225;53.568;13.266;2022-07-18T09:56:11;28.40;54.60
4425;DHT22;2225;53.568;13.266;2022-07-18T09:58:56;28.40;54.30
4425;DHT22;2225;53.568;13.266;2022-07-18T10:01:23;28.40;54.10
4425;DHT22;2225;53.568;13.266;2022-07-18T10:03:51;28.50;54.30
4425;DHT22;2225;53.568;13.266;2022-07-18T10:06:18;28.60;54.10
4425;DHT22;2225;53.568;13.266;2022-07-18T10:08:45;28.70;54.20
4425;DHT22;2225;53.568;13.266;2022-07-18T10:11:12;28.70;54.30
4425;DHT22;2225;53.568;13.266;2022-07-18T10:13:39;28.70;54.30
4425;DHT22;2225;53.568;13.266;2022-07-18T10:16:07;28.80;54.30
4425;DHT22;2225;53.568;13.266;2022-07-18T10:18:35;28.90;54.00
4425;DHT22;2225;53.568;13.266;2022-07-18T10:21:13;28.90;53.60
4425;DHT22;2225;53.568;13.266;2022-07-18T10:23:46;29.00;53.30
4425;DHT22;2225;53.568;13.266;2022-07-18T10:26:24;29.00;53.60
4425;DHT22;2225;53.568;13.266;2022-07-18T10:31:23;29.10;53.30
4425;DHT22;2225;53.568;13.266;2022-07-18T10:33:52;29.10;53.50
4425;DHT22;2225;53.568;13.266;2022-07-18T10:36:22;29.10;53.40
4425;DHT22;2225;53.568;13.266;2022-07-18T10:39:11;29.10;53.30
4425;DHT22;2225;53.568;13.266;2022-07-18T10:47:12;29.10;52.90
4425;DHT22;2225;53.568;13.266;2022-07-18T10:57:30;29.30;53.60
4425;DHT22;2225;53.568;13.266;2022-07-18T11:00:05;29.40;53.50
4425;DHT22;2225;53.568;13.266;2022-07-18T11:21:32;29.70;51.70
4425;DHT22;2225;53.568;13.266;2022-07-18T11:24:07;29.80;51.40
4425;DHT22;2225;53.568;13.266;2022-07-18T11:26:38;29.80;51.90
4425;DHT22;2225;53.568;13.266;2022-07-18T11:29:10;29.90;52.20
4425;DHT22;2225;53.568;13.266;2022-07-18T11:31:47;30.00;51.80
4425;DHT22;2225;53.568;13.266;2022-07-18T11:34:15;30.00;50.90
4425;DHT22;2225;53.568;13.266;2022-07-18T11:36:46;30.10;51.30
4425;DHT22;2225;53.568;13.266;2022-07-18T11:39:15;30.10;51.10
4425;DHT22;2225;53.568;13.266;2022-07-18T11:41:55;30.20;50.80
4425;DHT22;2225;53.568;13.266;2022-07-18T11:44:22;30.20;50.90
4425;DHT22;2225;53.568;13.266;2022-07-18T11:47:10;30.20;50.10
4425;DHT22;2225;53.568;13.266;2022-07-18T11:49:38;30.20;50.30
4425;DHT22;2225;53.568;13.266;2022-07-18T11:52:06;30.30;50.60
4425;DHT22;2225;53.568;13.266;2022-07-18T11:54:34;30.30;50.30
4425;DHT22;2225;53.568;13.266;2022-07-18T11:57:01;30.30;50.00
4425;DHT22;2225;53.568;13.266;2022-07-18T11:59:36;30.40;50.00
4425;DHT22;2225;53.568;13.266;2022-07-18T12:02:07;30.30;49.30
4425;DHT22;2225;53.568;13.266;2022-07-18T12:04:36;30.30;49.80
4425;DHT22;2225;53.568;13.266;2022-07-18T12:07:13;30.30;49.80
4425;DHT22;2225;53.568;13.266;2022-07-18T12:09:49;30.40;49.60
4425;DHT22;2225;53.568;13.266;2022-07-18T12:12:19;30.40;49.70
4425;DHT22;2225;53.568;13.266;2022-07-18T12:14:55;30.40;49.40
4425;DHT22;2225;53.568;13.266;2022-07-18T12:17:24;30.50;49.30
4425;DHT22;2225;53.568;13.266;2022-07-18T12:19:50;30.60;49.40
4425;DHT22;2225;53.568;13.266;2022-07-18T12:22:18;30.60;48.90
4425;DHT22;2225;53.568;13.266;2022-07-18T12:24:53;30.70;49.20
4425;DHT22;2225;53.568;13.266;2022-07-18T12:32:42;30.80;49.10
4425;DHT22;2225;53.568;13.266;2022-07-18T12:40:22;31.00;48.30
4425;DHT22;2225;53.568;13.266;2022-07-18T12:43:13;31.10;47.90
4425;DHT22;2225;53.568;13.266;2022-07-18T12:45:48;31.20;46.70
4425;DHT22;2225;53.568;13.266;2022-07-18T12:48:15;31.20;47.10
4425;DHT22;2225;53.568;13.266;2022-07-18T12:50:43;31.20;46.80
4425;DHT22;2225;53.568;13.266;2022-07-18T12:53:11;31.30;46.40
4425;DHT22;2225;53.568;13.266;2022-07-18T12:55:39;31.30;46.80
4425;DHT22;2225;53.568;13.266;2022-07-18T12:58:07;31.30;46.70
4425;DHT22;2225;53.568;13.266;2022-07-18T13:00:35;31.30;46.60
4425;DHT22;2225;53.568;13.266;2022-07-18T13:03:02;31.30;46.40
4425;DHT22;2225;53.568;13.266;2022-07-18T13:05:30;31.30;46.60
4425;DHT22;2225;53.568;13.266;2022-07-18T13:07:58;31.30;46.70
4425;DHT22;2225;53.568;13.266;2022-07-18T13:10:25;31.30;47.20
4425;DHT22;2225;53.568;13.266;2022-07-18T13:12:52;31.30;47.00
4425;DHT22;2225;53.568;13.266;2022-07-18T13:15:19;31.30;47.10
4425;DHT22;2225;53.568;13.266;2022-07-18T13:17:48;31.30;47.10
4425;DHT22;2225;53.568;13.266;2022-07-18T13:20:16;31.30;47.20
4425;DHT22;2225;53.568;13.266;2022-07-18T13:22:43;31.20;47.40
4425;DHT22;2225;53.568;13.266;2022-07-18T13:25:19;31.20;47.50
4425;DHT22;2225;53.568;13.266;2022-07-18T13:27:47;31.20;47.50
4425;DHT22;2225;53.568;13.266;2022-07-18T13:30:14;31.20;47.80
4425;DHT22;2225;53.568;13.266;2022-07-18T13:32:41;31.30;47.70
4425;DHT22;2225;53.568;13.266;2022-07-18T13:35:12;31.30;47.20
4425;DHT22;2225;53.568;13.266;2022-07-18T13:37:40;31.30;47.30
4425;DHT22;2225;53.568;13.266;2022-07-18T13:40:08;31.30;47.20
4425;DHT22;2225;53.568;13.266;2022-07-18T13:42:36;31.20;46.80
4425;DHT22;2225;53.568;13.266;2022-07-18T13:45:04;31.10;46.70
4425;DHT22;2225;53.568;13.266;2022-07-18T13:47:32;31.10;46.80
4425;DHT22;2225;53.568;13.266;2022-07-18T13:49:59;31.00;46.60
4425;DHT22;2225;53.568;13.266;2022-07-18T13:52:26;31.00;46.70
4425;DHT22;2225;53.568;13.266;2022-07-18T13:54:53;30.90;46.90
4425;DHT22;2225;53.568;13.266;2022-07-18T13:57:22;30.90;47.30
4425;DHT22;2225;53.568;13.266;2022-07-18T13:59:49;30.80;47.40
4425;DHT22;2225;53.568;13.266;2022-07-18T14:02:16;30.80;47.50
4425;DHT22;2225;53.568;13.266;2022-07-18T14:04:44;30.80;47.50
4425;DHT22;2225;53.568;13.266;2022-07-18T14:07:31;30.90;47.60
4425;DHT22;2225;53.568;13.266;2022-07-18T14:09:58;30.90;47.20
4425;DHT22;2225;53.568;13.266;2022-07-18T14:12:25;30.90;46.90
4425;DHT22;2225;53.568;13.266;2022-07-18T14:14:52;30.90;47.20
4425;DHT22;2225;53.568;13.266;2022-07-18T14:17:19;30.80;47.10
4425;DHT22;2225;53.568;13.266;2022-07-18T14:19:46;30.80;47.20
4425;DHT22;2225;53.568;13.266;2022-07-18T14:22:13;30.70;47.30
4425;DHT22;2225;53.568;13.266;2022-07-18T14:24:40;30.80;47.60
4425;DHT22;2225;53.568;13.266;2022-07-18T14:27:07;30.70;47.70
4425;DHT22;2225;53.568;13.266;2022-07-18T14:29:34;30.70;47.90
4425;DHT22;2225;53.568;13.266;2022-07-18T14:32:01;30.80;48.10
4425;DHT22;2225;53.568;13.266;2022-07-18T14:34:28;30.80;48.00
4425;DHT22;2225;53.568;13.266;2022-07-18T14:36:55;30.90;47.80
4425;DHT22;2225;53.568;13.266;2022-07-18T14:39:22;30.90;47.50
4425;DHT22;2225;53.568;13.266;2022-07-18T14:41:49;30.90;47.60
4425;DHT22;2225;53.568;13.266;2022-07-18T14:44:16;30.90;47.60
4425;DHT22;2225;53.568;13.266;2022-07-18T14:46:43;30.90;47.80
4425;DHT22;2225;53.568;13.266;2022-07-18T14:49:10;30.80;47.80
4425;DHT22;2225;53.568;13.266;2022-07-18T14:51:37;30.80;47.90
4425;DHT22;2225;53.568;13.266;2022-07-18T14:54:04;30.80;48.10
4425;DHT22;2225;53.568;13.266;2022-07-18T14:56:31;30.90;48.40
4425;DHT22;2225;53.568;13.266;2022-07-18T14:58:58;30.90;48.10
4425;DHT22;2225;53.568;13.266;2022-07-18T15:01:25;31.00;48.20
4425;DHT22;2225;53.568;13.266;2022-07-18T15:03:52;31.00;48.20
4425;DHT22;2225;53.568;13.266;2022-07-18T15:06:26;31.10;48.20
4425;DHT22;2225;53.568;13.266;2022-07-18T15:08:53;31.20;47.80
4425;DHT22;2225;53.568;13.266;2022-07-18T15:11:20;31.20;47.40
4425;DHT22;2225;53.568;13.266;2022-07-18T15:13:51;31.20;47.30
4425;DHT22;2225;53.568;13.266;2022-07-18T15:16:18;31.20;47.20
4425;DHT22;2225;53.568;13.266;2022-07-18T15:18:45;31.20;47.50
4425;DHT22;2225;53.568;13.266;2022-07-18T15:21:12;31.20;47.60
4425;DHT22;2225;53.568;13.266;2022-07-18T15:23:40;31.20;47.60
4425;DHT22;2225;53.568;13.266;2022-07-18T15:26:07;31.30;47.70
4425;DHT22;2225;53.568;13.266;2022-07-18T15:28:34;31.30;47.50
4425;DHT22;2225;53.568;13.266;2022-07-18T15:31:01;31.30;47.70
4425;DHT22;2225;53.568;13.266;2022-07-18T15:33:28;31.40;47.30
4425;DHT22;2225;53.568;13.266;2022-07-18T15:35:55;31.50;47.30
4425;DHT22;2225;53.568;13.266;2022-07-18T15:38:22;31.50;47.30
4425;DHT22;2225;53.568;13.266;2022-07-18T15:40:49;31.50;47.00
4425;DHT22;2225;53.568;13.266;2022-07-18T15:43:16;31.60;46.60
4425;DHT22;2225;53.568;13.266;2022-07-18T15:45:43;31.50;46.60
4425;DHT22;2225;53.568;13.266;2022-07-18T15:48:11;31.60;46.60
4425;DHT22;2225;53.568;13.266;2022-07-18T15:50:38;31.50;46.80
4425;DHT22;2225;53.568;13.266;2022-07-18T15:53:05;31.60;47.10
4425;DHT22;2225;53.568;13.266;2022-07-18T15:55:32;31.60;46.90
4425;DHT22;2225;53.568;13.266;2022-07-18T15:58:00;31.60;46.60
4425;DHT22;2225;53.568;13.266;2022-07-18T16:00:27;31.70;46.80
4425;DHT22;2225;53.568;13.266;2022-07-18T16:02:54;31.70;46.70
4425;DHT22;2225;53.568;13.266;2022-07-18T16:05:21;31.80;46.50
4425;DHT22;2225;53.568;13.266;2022-07-18T16:07:48;31.80;46.50
4425;DHT22;2225;53.568;13.266;2022-07-18T16:10:15;31.90;47.10
4425;DHT22;2225;53.568;13.266;2022-07-18T16:12:42;31.90;46.20
4425;DHT22;2225;53.568;13.266;2022-07-18T16:15:09;31.90;46.00
4425;DHT22;2225;53.568;13.266;2022-07-18T16:17:36;31.90;46.10
4425;DHT22;2225;53.568;13.266;2022-07-18T16:20:05;31.90;45.90
4425;DHT22;2225;53.568;13.266;2022-07-18T16:22:32;31.90;45.80
4425;DHT22;2225;53.568;13.266;2022-07-18T16:24:59;31.80;45.60
4425;DHT22;2225;53.568;13.266;2022-07-18T16:27:26;31.80;45.50
4425;DHT22;2225;53.568;13.266;2022-07-18T16:29:55;31.80;45.70
4425;DHT22;2225;53.568;13.266;2022-07-18T16:32:23;31.70;45.70
4425;DHT22;2225;53.568;13.266;2022-07-18T16:34:50;31.70;46.10
4425;DHT22;2225;53.568;13.266;2022-07-18T16:37:18;31.70;46.10
4425;DHT22;2225;53.568;13.266;2022-07-18T16:39:45;31.70;46.10
4425;DHT22;2225;53.568;13.266;2022-07-18T16:42:12;31.70;46.80
4425;DHT22;2225;53.568;13.266;2022-07-18T16:44:40;31.70;46.40